createdAt,value
2022-10-10T00:01:56.102Z,4.70
2022-10-10T00:04:24.532Z,4.20
2022-10-10T00:06:54.641Z,3.90
2022-10-10T00:09:22.995Z,4.37
2022-10-10T00:11:51.240Z,5.00
2022-10-10T00:14:19.583Z,5.10
2022-10-10T00:16:47.912Z,5.53
2022-10-10T00:19:16.243Z,5.10
2022-10-10T00:21:44.589Z,4.97
2022-10-10T00:24:14.643Z,4.90
2022-10-10T00:26:42.987Z,5.20
2022-10-10T00:29:11.254Z,5.00
2022-10-10T00:31:39.977Z,5.27
2022-10-10T00:34:08.574Z,5.53
2022-10-10T00:39:20.984Z,5.20
2022-10-10T00:41:49.326Z,4.73
2022-10-10T00:44:18.108Z,4.57
2022-10-10T00:46:46.403Z,5.03
2022-10-10T00:49:18.123Z,4.80
2022-10-10T00:51:48.033Z,4.83
2022-10-10T00:54:19.052Z,4.70
2022-10-10T00:56:52.174Z,4.80
2022-10-10T00:59:22.086Z,5.17
2022-10-10T01:01:50.326Z,4.83
2022-10-10T01:04:33.861Z,5.33
2022-10-10T01:07:04.666Z,4.80
2022-10-10T01:09:34.197Z,5.33
2022-10-10T01:12:15.511Z,5.13
2022-10-10T01:14:51.498Z,4.93
2022-10-10T01:17:27.308Z,4.67
2022-10-10T01:20:27.543Z,4.87
2022-10-10T01:23:22.212Z,4.80
2022-10-10T01:26:02.403Z,4.90
2022-10-10T01:28:40.993Z,5.00
2022-10-10T01:31:11.805Z,5.00
2022-10-10T01:33:51.472Z,4.83
2022-10-10T01:36:26.575Z,5.00
2022-10-10T01:39:03.616Z,4.67
2022-10-10T01:41:34.801Z,4.57
2022-10-10T01:44:04.465Z,4.47
2022-10-10T01:46:33.772Z,4.90
2022-10-10T01:49:03.095Z,4.50
2022-10-10T01:51:50.410Z,4.53
2022-10-10T01:54:36.116Z,4.83
2022-10-10T01:57:19.648Z,4.43
2022-10-10T02:00:03.280Z,5.10
2022-10-10T02:02:41.810Z,5.33
2022-10-10T02:05:19.534Z,4.80
2022-10-10T02:07:53.894Z,4.97
2022-10-10T02:10:25.810Z,4.33
2022-10-10T02:12:56.990Z,5.30
2022-10-10T02:15:30.096Z,5.23
2022-10-10T02:17:59.026Z,5.60
2022-10-10T02:20:29.237Z,5.00
2022-10-10T02:22:57.795Z,5.10
2022-10-10T02:25:30.817Z,5.20
2022-10-10T02:28:08.555Z,4.87
2022-10-10T02:30:42.149Z,4.90
2022-10-10T02:33:10.613Z,5.20
2022-10-10T02:35:43.356Z,5.00
2022-10-10T02:38:15.603Z,5.27
2022-10-10T02:40:46.935Z,4.80
2022-10-10T02:43:17.527Z,5.13
2022-10-10T02:45:47.529Z,4.80
2022-10-10T02:48:15.833Z,5.00
2022-10-10T02:50:44.843Z,5.07
2022-10-10T02:53:13.101Z,5.27
2022-10-10T02:55:41.313Z,5.00
2022-10-10T02:58:10.438Z,4.77
2022-10-10T03:00:38.785Z,4.80
2022-10-10T03:03:10.308Z,4.70
2022-10-10T03:05:40.990Z,4.77
2022-10-10T03:08:11.783Z,5.03
2022-10-10T03:10:40.410Z,4.60
2022-10-10T03:13:08.980Z,4.60
2022-10-10T03:15:40.053Z,5.13
2022-10-10T03:18:10.156Z,4.93
2022-10-10T03:20:38.836Z,5.43
2022-10-10T03:23:07.376Z,4.83
2022-10-10T03:25:35.878Z,4.83
2022-10-10T03:28:04.238Z,5.53
2022-10-10T03:30:32.533Z,5.50
2022-10-10T03:33:00.909Z,5.80
2022-10-10T03:35:30.709Z,5.27
2022-10-10T03:37:59.625Z,4.93
2022-10-10T03:40:29.281Z,5.17
2022-10-10T03:42:58.251Z,4.90
2022-10-10T03:45:26.580Z,4.57
2022-10-10T03:47:54.775Z,4.87
2022-10-10T03:50:23.277Z,5.37
2022-10-10T03:52:53.173Z,4.27
2022-10-10T03:55:21.714Z,4.83
2022-10-10T03:57:49.978Z,4.53
2022-10-10T04:00:18.393Z,4.90
2022-10-10T04:02:46.827Z,4.43
2022-10-10T04:05:15.063Z,4.47
2022-10-10T04:07:43.333Z,5.10
2022-10-10T04:10:13.026Z,4.90
2022-10-10T04:12:41.322Z,5.77
2022-10-10T04:15:11.205Z,7.13
2022-10-10T04:17:41.292Z,6.40
2022-10-10T04:20:10.763Z,6.30
2022-10-10T04:22:39.135Z,6.27
2022-10-10T04:25:07.708Z,8.13
2022-10-10T04:27:39.740Z,7.33
2022-10-10T04:30:09.353Z,7.90
2022-10-10T04:32:38.162Z,9.23
2022-10-10T04:35:07.900Z,10.10
2022-10-10T04:37:39.649Z,10.77
2022-10-10T04:40:09.952Z,16.10
2022-10-10T04:42:40.087Z,14.90
2022-10-10T04:45:09.666Z,14.67
2022-10-10T04:47:38.030Z,17.07
2022-10-10T04:50:07.452Z,15.43
2022-10-10T04:52:35.977Z,12.30
2022-10-10T04:55:04.676Z,11.70
2022-10-10T04:57:33.175Z,14.37
2022-10-10T05:00:23.267Z,14.23
2022-10-10T05:02:51.956Z,13.93
2022-10-10T05:05:20.509Z,12.20
2022-10-10T05:08:13.640Z,14.63
2022-10-10T05:10:42.006Z,13.30
2022-10-10T05:13:25.154Z,13.30
2022-10-10T05:15:54.892Z,12.10
2022-10-10T05:18:23.474Z,12.93
2022-10-10T05:20:51.739Z,13.53
2022-10-10T05:23:20.378Z,11.90
2022-10-10T05:25:50.741Z,12.40
2022-10-10T05:28:19.216Z,12.10
2022-10-10T05:30:47.610Z,12.23
2022-10-10T05:33:19.825Z,14.00
2022-10-10T05:35:48.339Z,14.37
2022-10-10T05:38:16.636Z,12.43
2022-10-10T05:40:45.438Z,12.00
2022-10-10T05:43:13.808Z,12.53
2022-10-10T05:45:44.380Z,13.40
2022-10-10T05:48:32.295Z,12.47
2022-10-10T05:51:21.201Z,11.00
2022-10-10T05:54:13.006Z,11.43
2022-10-10T05:57:16.231Z,11.00
2022-10-10T06:00:30.235Z,13.30
2022-10-10T06:03:09.078Z,14.33
2022-10-10T06:05:53.759Z,13.13
2022-10-10T06:08:39.808Z,13.00
2022-10-10T06:11:12.195Z,13.03
2022-10-10T06:13:54.172Z,13.93
2022-10-10T06:16:41.332Z,14.10
2022-10-10T06:19:17.796Z,13.17
2022-10-10T06:22:01.383Z,12.93
2022-10-10T06:24:40.633Z,12.93
2022-10-10T06:27:31.802Z,13.03
2022-10-10T06:30:10.552Z,12.00
2022-10-10T06:37:02.017Z,11.03
2022-10-10T06:39:49.206Z,13.07
2022-10-10T06:42:47.576Z,12.57
2022-10-10T06:46:08.217Z,11.20
2022-10-10T06:48:34.769Z,12.40
2022-10-10T06:51:05.154Z,11.23
2022-10-10T06:53:34.885Z,11.60
2022-10-10T06:56:05.857Z,11.57
2022-10-10T06:58:34.961Z,12.80
2022-10-10T07:01:05.517Z,13.33
2022-10-10T07:03:35.307Z,13.97
2022-10-10T07:06:04.684Z,13.23
2022-10-10T07:08:34.642Z,12.70
2022-10-10T07:11:04.633Z,12.10
2022-10-10T07:13:34.666Z,11.93
2022-10-10T07:16:07.478Z,11.07
2022-10-10T07:19:10.071Z,11.40
2022-10-10T07:21:38.923Z,12.97
2022-10-10T07:24:15.538Z,11.93
2022-10-10T07:27:10.302Z,11.63
2022-10-10T07:29:47.834Z,11.37
2022-10-10T07:32:16.366Z,13.10
2022-10-10T07:34:46.893Z,11.67
2022-10-10T07:37:15.356Z,11.57
2022-10-10T07:39:43.750Z,10.83
2022-10-10T07:42:13.438Z,13.10
2022-10-10T07:44:41.746Z,10.97
2022-10-10T07:47:10.040Z,11.10
2022-10-10T07:49:38.408Z,14.07
2022-10-10T07:52:06.710Z,12.00
2022-10-10T07:54:35.126Z,9.80
2022-10-10T07:57:03.470Z,12.53
2022-10-10T07:59:33.206Z,9.90
2022-10-10T08:02:01.643Z,12.83
2022-10-10T08:04:30.126Z,11.60
2022-10-10T08:06:58.530Z,12.20
2022-10-10T08:09:26.975Z,11.27
2022-10-10T08:11:55.405Z,11.13
2022-10-10T08:14:24.037Z,12.23
2022-10-10T08:16:53.785Z,12.80
2022-10-10T08:19:22.122Z,11.20
2022-10-10T08:21:50.579Z,12.37
2022-10-10T08:24:19.760Z,12.00
2022-10-10T08:26:48.204Z,12.80
2022-10-10T08:29:16.828Z,12.40
2022-10-10T08:31:45.296Z,13.43
2022-10-10T08:34:15.050Z,11.43
2022-10-10T08:36:47.778Z,12.53
2022-10-10T08:39:18.246Z,11.33
2022-10-10T08:42:04.916Z,12.53
2022-10-10T08:44:40.545Z,12.77
2022-10-10T08:47:14.706Z,12.07
2022-10-10T08:49:47.399Z,10.20
2022-10-10T08:52:21.228Z,10.67
2022-10-10T08:55:04.905Z,10.80
2022-10-10T08:57:40.076Z,10.27
2022-10-10T09:00:16.716Z,11.77
2022-10-10T09:02:54.272Z,9.17
2022-10-10T09:05:36.958Z,9.23
2022-10-10T09:08:28.201Z,10.13
2022-10-10T09:10:59.609Z,9.20
2022-10-10T09:13:37.709Z,10.10
2022-10-10T09:16:13.349Z,9.23
2022-10-10T09:19:00.579Z,9.00
2022-10-10T09:21:45.750Z,8.50
2022-10-10T09:24:23.289Z,9.30
2022-10-10T09:27:01.481Z,9.93
2022-10-10T09:29:35.208Z,10.20
2022-10-10T09:32:11.357Z,8.80
2022-10-10T09:34:42.790Z,9.80
2022-10-10T09:37:29.524Z,10.10
2022-10-10T09:40:09.945Z,9.00
2022-10-10T09:42:41.267Z,8.20
2022-10-10T09:45:18.417Z,8.40
2022-10-10T09:47:48.173Z,6.97
2022-10-10T09:50:17.416Z,7.13
2022-10-10T09:52:48.261Z,7.73
2022-10-10T09:55:25.229Z,7.20
2022-10-10T09:57:55.128Z,7.30
2022-10-10T10:00:35.414Z,7.37
2022-10-10T10:03:27.976Z,6.50
2022-10-10T10:06:00.367Z,7.10
2022-10-10T10:08:42.777Z,6.70
2022-10-10T10:11:28.548Z,5.87
2022-10-10T10:13:59.730Z,6.30
2022-10-10T10:16:42.512Z,5.47
2022-10-10T10:19:35.625Z,5.47
2022-10-10T10:22:03.982Z,6.33
2022-10-10T10:24:36.542Z,6.20
2022-10-10T10:27:12.045Z,6.33
2022-10-10T10:29:47.245Z,7.30
2022-10-10T10:32:25.106Z,7.43
2022-10-10T10:35:16.321Z,6.83
2022-10-10T10:38:07.142Z,6.00
2022-10-10T10:40:41.758Z,5.77
2022-10-10T10:43:44.836Z,5.50
2022-10-10T10:46:24.359Z,5.80
2022-10-10T10:49:02.305Z,6.13
2022-10-10T10:52:03.839Z,6.50
2022-10-10T10:54:45.618Z,4.93
2022-10-10T10:57:32.856Z,6.33
2022-10-10T11:00:25.561Z,6.70
2022-10-10T11:05:15.937Z,7.17
2022-10-10T11:06:16.463Z,6.57
2022-10-10T11:08:59.048Z,7.40
2022-10-10T11:11:42.633Z,6.53
2022-10-10T11:14:24.538Z,6.17
2022-10-10T11:16:56.108Z,6.07
2022-10-10T11:19:32.944Z,6.17
2022-10-10T11:22:17.712Z,5.57
2022-10-10T11:24:51.260Z,5.70
2022-10-10T11:27:28.424Z,6.20
2022-10-10T11:30:07.372Z,6.07
2022-10-10T11:32:41.612Z,6.23
2022-10-10T11:35:22.964Z,7.00
2022-10-10T11:37:57.137Z,5.77
2022-10-10T11:40:34.602Z,5.47
2022-10-10T11:43:07.389Z,6.03
2022-10-10T11:45:47.223Z,6.03
2022-10-10T11:48:27.114Z,6.73
2022-10-10T11:51:00.698Z,5.27
2022-10-10T11:53:35.028Z,6.63
2022-10-10T11:56:13.721Z,6.83
2022-10-10T11:58:44.079Z,5.63
2022-10-10T12:01:20.540Z,5.87
2022-10-10T12:03:50.831Z,5.90
2022-10-10T12:06:23.547Z,6.17
2022-10-10T12:09:17.559Z,6.53
2022-10-10T12:11:50.805Z,6.20
2022-10-10T12:14:22.509Z,6.47
2022-10-10T12:16:53.023Z,6.23
2022-10-10T12:19:23.438Z,6.30
2022-10-10T12:21:56.579Z,6.30
2022-10-10T12:24:27.720Z,6.97
2022-10-10T12:27:29.695Z,6.70
2022-10-10T12:30:19.414Z,4.93
2022-10-10T12:32:59.405Z,5.90
2022-10-10T12:35:38.687Z,5.47
2022-10-10T12:38:18.941Z,8.07
2022-10-10T12:41:10.733Z,8.37
2022-10-10T12:43:59.366Z,8.00
2022-10-10T12:46:49.844Z,5.83
2022-10-10T12:49:25.165Z,5.67
2022-10-10T12:52:02.338Z,5.20
2022-10-10T12:54:35.122Z,5.70
2022-10-10T12:57:10.295Z,5.87
2022-10-10T12:59:39.928Z,5.17
2022-10-10T13:02:15.925Z,5.17
2022-10-10T13:04:47.525Z,5.07
2022-10-10T13:07:19.022Z,4.47
2022-10-10T13:09:51.318Z,4.20
2022-10-10T13:12:25.346Z,3.57
2022-10-10T13:14:53.774Z,3.73
2022-10-10T13:17:24.845Z,3.83
2022-10-10T13:19:56.274Z,3.03
2022-10-10T13:22:25.579Z,3.50
2022-10-10T13:24:54.477Z,3.40
2022-10-10T13:27:25.570Z,3.70
2022-10-10T13:29:55.039Z,3.60
2022-10-10T13:32:27.003Z,3.23
2022-10-10T13:35:00.123Z,4.20
2022-10-10T13:37:29.751Z,3.60
2022-10-10T13:39:58.646Z,4.20
2022-10-10T13:42:49.085Z,4.00
2022-10-10T13:45:36.446Z,3.57
2022-10-10T13:48:26.869Z,4.00
2022-10-10T13:51:14.970Z,4.30
2022-10-10T13:53:52.367Z,4.10
2022-10-10T13:56:38.395Z,4.50
2022-10-10T13:59:12.343Z,5.00
2022-10-10T14:01:42.711Z,5.13
2022-10-10T14:04:20.216Z,4.17
2022-10-10T14:06:59.687Z,4.83
2022-10-10T14:09:32.836Z,4.67
2022-10-10T14:12:03.637Z,5.37
2022-10-10T14:14:40.454Z,5.70
2022-10-10T14:17:11.007Z,5.30
2022-10-10T14:19:39.800Z,5.03
2022-10-10T14:22:09.569Z,4.13
2022-10-10T14:24:38.245Z,3.60
2022-10-10T14:27:16.095Z,3.97
2022-10-10T14:29:44.442Z,4.10
2022-10-10T14:32:13.913Z,4.23
2022-10-10T14:34:57.436Z,4.53
2022-10-10T14:37:28.878Z,4.90
2022-10-10T14:39:57.499Z,6.63
2022-10-10T14:42:26.927Z,7.90
2022-10-10T14:44:55.164Z,7.67
2022-10-10T14:47:25.543Z,7.63
2022-10-10T14:49:56.534Z,8.43
2022-10-10T14:52:26.227Z,7.00
2022-10-10T14:54:54.742Z,5.70
2022-10-10T14:57:23.255Z,5.40
2022-10-10T14:59:51.539Z,3.83
2022-10-10T15:02:21.740Z,3.43
2022-10-10T15:04:50.870Z,4.37
2022-10-10T15:07:20.019Z,4.40
2022-10-10T15:10:27.500Z,6.40
2022-10-10T15:12:41.541Z,6.33
2022-10-10T15:15:11.334Z,7.50
2022-10-10T15:17:39.774Z,6.90
2022-10-10T15:20:12.043Z,6.20
2022-10-10T15:22:40.723Z,4.50
2022-10-10T15:25:11.371Z,4.30
2022-10-10T15:30:22.252Z,4.30
2022-10-10T15:32:50.848Z,4.50
2022-10-10T15:35:21.723Z,4.63
2022-10-10T15:37:50.151Z,5.07
2022-10-10T15:40:22.505Z,6.63
2022-10-10T15:42:51.651Z,5.70
2022-10-10T15:45:43.683Z,6.17
2022-10-10T15:48:08.683Z,6.57
2022-10-10T15:50:42.214Z,5.97
2022-10-10T15:53:10.488Z,4.13
2022-10-10T15:55:43.766Z,3.90
2022-10-10T15:58:12.046Z,4.37
2022-10-10T16:00:41.502Z,4.27
2022-10-10T16:03:10.449Z,3.50
2022-10-10T16:05:42.927Z,3.37
2022-10-10T16:08:12.395Z,3.90
2022-10-10T16:10:41.909Z,3.50
2022-10-10T16:13:12.405Z,4.23
2022-10-10T16:15:40.715Z,3.80
2022-10-10T16:18:24.359Z,4.07
2022-10-10T16:20:52.695Z,4.10
2022-10-10T16:23:21.061Z,4.10
2022-10-10T16:25:49.319Z,4.30
2022-10-10T16:28:18.992Z,4.47
2022-10-10T16:30:47.293Z,4.00
2022-10-10T16:33:15.620Z,4.33
2022-10-10T16:35:44.409Z,4.13
2022-10-10T16:38:13.292Z,4.40
2022-10-10T16:40:41.578Z,4.33
2022-10-10T16:43:10.047Z,4.20
2022-10-10T16:45:44.522Z,4.60
2022-10-10T16:48:13.349Z,5.43
2022-10-10T16:50:42.552Z,5.43
2022-10-10T16:53:12.294Z,5.63
2022-10-10T16:55:41.399Z,5.00
2022-10-10T16:58:12.292Z,5.10
2022-10-10T17:00:46.994Z,5.13
2022-10-10T17:03:15.582Z,6.27
2022-10-10T17:05:44.412Z,5.80
2022-10-10T17:08:14.350Z,5.80
2022-10-10T17:10:47.346Z,5.50
2022-10-10T17:13:16.353Z,4.50
2022-10-10T17:16:34.134Z,5.60
2022-10-10T17:18:55.616Z,4.10
2022-10-10T17:21:25.773Z,4.20
2022-10-10T17:23:54.304Z,4.93
2022-10-10T17:26:23.978Z,5.80
2022-10-10T17:31:57.495Z,7.93
2022-10-10T17:34:25.894Z,4.40
2022-10-10T17:36:54.344Z,5.13
2022-10-10T17:39:22.989Z,5.50
2022-10-10T17:41:51.292Z,7.00
2022-10-10T17:44:19.793Z,5.10
2022-10-10T17:46:48.141Z,3.50
2022-10-10T17:49:18.371Z,3.30
2022-10-10T17:51:48.981Z,3.40
2022-10-10T17:54:21.594Z,3.60
2022-10-10T17:56:55.964Z,4.00
2022-10-10T17:59:24.347Z,5.03
2022-10-10T18:01:52.724Z,5.10
2022-10-10T18:04:22.379Z,7.60
2022-10-10T18:06:50.694Z,6.90
2022-10-10T18:09:19.130Z,6.57
2022-10-10T18:11:47.650Z,7.20
2022-10-10T18:14:15.995Z,5.20
2022-10-10T18:16:45.064Z,6.10
2022-10-10T18:19:13.422Z,5.20
2022-10-10T18:21:43.663Z,5.07
2022-10-10T18:24:12.485Z,5.30
2022-10-10T18:26:41.285Z,5.13
2022-10-10T18:29:09.676Z,5.80
2022-10-10T18:31:39.147Z,5.93
2022-10-10T18:34:08.443Z,6.40
2022-10-10T18:36:38.651Z,6.33
2022-10-10T18:39:23.287Z,6.97
2022-10-10T18:41:51.830Z,6.83
2022-10-10T18:44:21.163Z,8.03
2022-10-10T18:46:50.942Z,6.50
2022-10-10T18:49:19.545Z,7.77
2022-10-10T18:51:48.393Z,7.07
2022-10-10T18:54:18.705Z,10.20
2022-10-10T18:56:50.501Z,27.60
2022-10-10T18:59:21.897Z,34.53
2022-10-10T19:01:52.366Z,10.80
2022-10-10T19:04:22.059Z,13.20
2022-10-10T19:06:56.788Z,13.20
2022-10-10T19:09:26.810Z,8.87
2022-10-10T19:11:56.864Z,8.80
2022-10-10T19:14:25.404Z,9.37
2022-10-10T19:16:53.837Z,7.10
2022-10-10T19:19:22.753Z,7.60
2022-10-10T19:21:52.272Z,7.47
2022-10-10T19:24:22.379Z,7.30
2022-10-10T19:26:54.721Z,7.90
2022-10-10T19:29:25.484Z,6.43
2022-10-10T19:31:53.899Z,5.80
2022-10-10T19:34:22.529Z,5.67
2022-10-10T19:36:50.854Z,5.93
2022-10-10T19:39:19.483Z,5.33
2022-10-10T19:41:47.993Z,5.70
2022-10-10T19:44:16.243Z,4.20
2022-10-10T19:46:45.968Z,5.20
2022-10-10T19:49:14.759Z,4.37
2022-10-10T19:51:43.376Z,4.17
2022-10-10T19:54:12.134Z,5.57
2022-10-10T19:56:40.485Z,3.90
2022-10-10T19:59:09.148Z,3.90
2022-10-10T20:01:37.714Z,3.97
2022-10-10T20:04:09.445Z,5.17
2022-10-10T20:06:41.201Z,4.20
2022-10-10T20:09:10.954Z,4.07
2022-10-10T20:11:40.544Z,3.60
2022-10-10T20:14:08.874Z,4.13
2022-10-10T20:16:37.163Z,4.10
2022-10-10T20:19:06.818Z,3.57
2022-10-10T20:21:35.952Z,3.40
2022-10-10T20:24:06.914Z,3.80
2022-10-10T20:26:35.913Z,3.43
2022-10-10T20:29:05.113Z,3.00
2022-10-10T20:31:35.856Z,3.17
2022-10-10T20:34:05.944Z,3.53
2022-10-10T20:36:37.109Z,2.80
2022-10-10T20:39:08.076Z,3.33
2022-10-10T20:41:37.698Z,3.00
2022-10-10T20:44:08.119Z,2.80
2022-10-10T20:46:38.144Z,3.37
2022-10-10T20:49:09.333Z,2.90
2022-10-10T20:51:39.307Z,2.93
2022-10-10T20:54:08.263Z,2.73
2022-10-10T20:56:36.919Z,2.83
2022-10-10T20:59:05.188Z,2.43
2022-10-10T21:01:33.970Z,3.00
2022-10-10T21:04:03.282Z,2.90
2022-10-10T21:06:33.407Z,2.57
2022-10-10T21:09:06.089Z,2.93
2022-10-10T21:11:35.339Z,2.77
2022-10-10T21:14:04.116Z,3.00
2022-10-10T21:16:35.072Z,2.93
2022-10-10T21:19:03.919Z,3.20
2022-10-10T21:21:35.021Z,2.57
2022-10-10T21:24:07.289Z,2.40
2022-10-10T21:26:35.899Z,2.37
2022-10-10T21:29:04.493Z,2.30
2022-10-10T21:31:35.156Z,2.77
2022-10-10T21:34:04.918Z,2.73
2022-10-10T21:36:34.796Z,2.70
2022-10-10T21:39:06.836Z,2.57
2022-10-10T21:41:35.926Z,3.00
2022-10-10T21:44:04.496Z,2.77
2022-10-10T21:46:36.576Z,2.80
2022-10-10T21:49:07.966Z,2.90
2022-10-10T21:51:38.295Z,2.93
2022-10-10T21:54:08.640Z,2.73
2022-10-10T21:56:37.829Z,3.00
2022-10-10T21:59:06.728Z,3.10
2022-10-10T22:01:37.290Z,3.07
2022-10-10T22:04:07.031Z,2.90
2022-10-10T22:06:35.531Z,2.90
2022-10-10T22:09:04.685Z,2.70
2022-10-10T22:11:35.371Z,2.83
2022-10-10T22:14:04.364Z,2.60
2022-10-10T22:16:33.109Z,2.60
2022-10-10T22:19:02.085Z,2.67
2022-10-10T22:21:32.549Z,2.77
2022-10-10T22:24:02.571Z,3.07
2022-10-10T22:26:31.998Z,2.70
2022-10-10T22:29:01.881Z,2.80
2022-10-10T22:31:30.466Z,2.90
2022-10-10T22:33:59.098Z,3.77
2022-10-10T22:36:27.829Z,3.37
2022-10-10T22:38:56.194Z,2.90
2022-10-10T22:41:24.410Z,2.90
2022-10-10T22:43:53.471Z,2.70
2022-10-10T22:46:25.142Z,2.50
2022-10-10T22:48:53.831Z,2.90
2022-10-10T22:51:22.397Z,2.80
2022-10-10T22:53:50.750Z,3.47
2022-10-10T22:56:21.341Z,3.00
2022-10-10T22:58:51.434Z,2.90
2022-10-10T23:01:25.877Z,3.10
2022-10-10T23:04:13.230Z,3.40
2022-10-10T23:06:41.628Z,2.80
2022-10-10T23:09:14.095Z,3.07
2022-10-10T23:11:42.370Z,3.20
2022-10-10T23:14:10.691Z,3.00
2022-10-10T23:16:41.009Z,2.77
2022-10-10T23:19:09.268Z,3.40
2022-10-10T23:21:37.714Z,3.20
2022-10-10T23:24:06.837Z,3.20
2022-10-10T23:26:35.146Z,2.83
2022-10-10T23:29:03.730Z,2.80
2022-10-10T23:31:32.777Z,3.00
2022-10-10T23:34:02.642Z,2.73
2022-10-10T23:36:30.912Z,3.10
2022-10-10T23:38:59.320Z,2.90
2022-10-10T23:41:27.577Z,2.90
2022-10-10T23:43:55.796Z,2.77
2022-10-10T23:46:24.077Z,3.07
2022-10-10T23:48:52.628Z,2.67
2022-10-10T23:51:22.242Z,2.87
2022-10-10T23:53:50.473Z,2.80
2022-10-10T23:56:19.439Z,2.63
2022-10-10T23:58:48.120Z,2.90
